Time;durP1;ratioP1;P1;durP2;ratioP2;P2;SDS_P1;SDS_P2;PMS_P1;PMS_P2;Temp;Humidity;BMP_temperature;BMP_pressure;BME280_temperature;BME280_humidity;BME280_pressure;Samples;Min_cycle;Max_cycle;Signal;HPM_P1;HPM_P2
2022/03/26 00:01:17;;;;;;;58.17;24.70;;;;;;;;;;5011863;28;20146;-68
2022/03/26 00:03:43;;;;;;;61.67;26.07;;;;;;;;;;5020587;28;20486;-68
2022/03/26 00:06:08;;;;;;;63.60;25.80;;;;;;;;;;5012875;28;20268;-67
2022/03/26 00:08:34;;;;;;;61.20;25.83;;;;;;;;;;5017285;28;20395;-68
2022/03/26 00:10:59;;;;;;;58.67;25.02;;;;;;;;;;5008380;28;20489;-68
2022/03/26 00:13:24;;;;;;;68.63;26.00;;;;;;;;;;5014742;28;20034;-67
2022/03/26 00:15:49;;;;;;;57.05;24.52;;;;;;;;;;5014849;28;20304;-68
2022/03/26 00:18:17;;;;;;;58.75;26.25;;;;;;;;;;5017089;28;20532;-68
2022/03/26 00:20:43;;;;;;;59.92;26.90;;;;;;;;;;5008106;28;20034;-68
2022/03/26 00:23:08;;;;;;;63.97;26.67;;;;;;;;;;5016610;28;20072;-68
2022/03/26 00:25:33;;;;;;;65.75;26.92;;;;;;;;;;5028051;28;20053;-68
2022/03/26 00:27:58;;;;;;;71.07;28.27;;;;;;;;;;5000351;28;20018;-68
2022/03/26 00:30:23;;;;;;;64.80;26.08;;;;;;;;;;5010892;28;20038;-68
2022/03/26 00:32:49;;;;;;;69.27;25.43;;;;;;;;;;5008425;28;20018;-68
2022/03/26 00:35:14;;;;;;;57.70;25.27;;;;;;;;;;5017190;28;20686;-68
2022/03/26 00:37:40;;;;;;;65.53;23.60;;;;;;;;;;5015056;28;20014;-68
2022/03/26 00:40:06;;;;;;;60.20;21.40;;;;;;;;;;5014272;28;20068;-68
2022/03/26 00:42:31;;;;;;;62.63;23.73;;;;;;;;;;5013616;28;20057;-68
2022/03/26 00:44:56;;;;;;;60.65;22.17;;;;;;;;;;5015392;28;20030;-68
2022/03/26 00:47:21;;;;;;;51.65;24.40;;;;;;;;;;5013066;28;20477;-68
2022/03/26 00:49:47;;;;;;;56.30;24.52;;;;;;;;;;5017132;28;20029;-68
2022/03/26 00:52:12;;;;;;;56.60;24.20;;;;;;;;;;5011430;28;20064;-68
2022/03/26 00:54:37;;;;;;;55.67;24.42;;;;;;;;;;5015449;28;20666;-68
2022/03/26 00:57:02;;;;;;;57.33;25.70;;;;;;;;;;4993713;28;20071;-68
2022/03/26 00:59:28;;;;;;;62.22;25.65;;;;;;;;;;5015510;28;20112;-68
2022/03/26 01:01:53;;;;;;;56.57;26.00;;;;;;;;;;5000220;28;20397;-67
2022/03/26 01:04:18;;;;;;;72.05;30.55;;;;;;;;;;5016737;28;20241;-68
2022/03/26 01:06:44;;;;;;;58.65;24.90;;;;;;;;;;5007298;28;20022;-68
2022/03/26 01:09:09;;;;;;;59.13;25.98;;;;;;;;;;5016947;28;20374;-67
2022/03/26 01:11:34;;;;;;;65.70;27.05;;;;;;;;;;5010611;28;20045;-67
2022/03/26 01:14:00;;;;;;;60.40;26.00;;;;;;;;;;5014098;28;20273;-68
2022/03/26 01:16:25;;;;;;;58.40;25.75;;;;;;;;;;4987383;28;20038;-67
2022/03/26 01:18:51;;;;;;;57.58;25.55;;;;;;;;;;4998703;28;20030;-67
2022/03/26 01:21:17;;;;;;;63.15;26.27;;;;;;;;;;5010362;28;20029;-67
2022/03/26 01:23:43;;;;;;;64.85;27.15;;;;;;;;;;5019919;28;20032;-67
2022/03/26 01:26:09;;;;;;;67.68;27.15;;;;;;;;;;5022794;28;20024;-67
2022/03/26 01:28:34;;;;;;;57.95;25.58;;;;;;;;;;5016650;28;20014;-67
2022/03/26 01:31:00;;;;;;;70.47;26.35;;;;;;;;;;5017592;28;20026;-67
2022/03/26 01:33:25;;;;;;;68.57;25.90;;;;;;;;;;5014698;28;20021;-68
2022/03/26 01:35:50;;;;;;;56.22;23.42;;;;;;;;;;5012786;28;20018;-67
2022/03/26 01:38:16;;;;;;;57.75;23.85;;;;;;;;;;5010951;28;20029;-67
2022/03/26 01:40:41;;;;;;;57.47;24.15;;;;;;;;;;5013674;28;20037;-68
2022/03/26 01:43:06;;;;;;;51.60;23.13;;;;;;;;;;5001349;28;20961;-68
2022/03/26 01:45:31;;;;;;;57.30;23.98;;;;;;;;;;5011967;28;20105;-68
2022/03/26 01:47:58;;;;;;;59.60;24.60;;;;;;;;;;5008122;28;20022;-67
2022/03/26 01:50:23;;;;;;;53.65;23.73;;;;;;;;;;5013489;28;20018;-67
2022/03/26 01:52:49;;;;;;;55.28;24.35;;;;;;;;;;4997972;28;20021;-67
2022/03/26 01:55:14;;;;;;;66.68;25.25;;;;;;;;;;5023328;28;20049;-67
2022/03/26 01:57:39;;;;;;;59.03;24.10;;;;;;;;;;5019459;28;20057;-67
2022/03/26 02:00:05;;;;;;;63.63;26.13;;;;;;;;;;5029177;28;20025;-67
2022/03/26 02:02:30;;;;;;;56.15;25.67;;;;;;;;;;5028129;28;20053;-68
2022/03/26 02:04:56;;;;;;;58.08;24.65;;;;;;;;;;5017997;28;20049;-67
2022/03/26 02:07:22;;;;;;;55.50;23.95;;;;;;;;;;5020055;28;20029;-67
2022/03/26 02:09:48;;;;;;;60.78;23.25;;;;;;;;;;5021629;28;20529;-67
2022/03/26 02:12:27;;;;;;;54.15;21.60;;;;;;;;;;5024468;28;20037;-67
2022/03/26 02:14:53;;;;;;;56.10;23.13;;;;;;;;;;5020788;28;20018;-67
2022/03/26 02:17:18;;;;;;;55.85;25.38;;;;;;;;;;5014512;28;20022;-67
2022/03/26 02:19:51;;;;;;;67.57;23.80;;;;;;;;;;5022381;28;20281;-67
2022/03/26 02:22:16;;;;;;;59.13;23.40;;;;;;;;;;5016079;28;20018;-67
2022/03/26 02:24:41;;;;;;;65.45;23.38;;;;;;;;;;5014285;28;20030;-67
2022/03/26 02:27:07;;;;;;;58.15;23.23;;;;;;;;;;5015497;28;20025;-67
2022/03/26 02:29:32;;;;;;;64.15;24.70;;;;;;;;;;5024301;28;20352;-67
2022/03/26 02:31:57;;;;;;;58.53;23.70;;;;;;;;;;5019093;28;20064;-67
2022/03/26 02:34:24;;;;;;;73.95;25.40;;;;;;;;;;5023612;28;20363;-67
2022/03/26 02:36:49;;;;;;;58.88;24.77;;;;;;;;;;5013951;28;20032;-67
2022/03/26 02:39:14;;;;;;;59.58;24.77;;;;;;;;;;4999215;28;20034;-67
2022/03/26 02:41:40;;;;;;;62.13;23.35;;;;;;;;;;4999892;28;20443;-67
2022/03/26 02:44:05;;;;;;;43.95;21.58;;;;;;;;;;5020783;28;20555;-67
2022/03/26 02:46:30;;;;;;;55.75;23.17;;;;;;;;;;5012730;28;20026;-66
2022/03/26 02:48:55;;;;;;;58.38;23.80;;;;;;;;;;5019788;28;20018;-66
2022/03/26 02:51:20;;;;;;;62.15;22.88;;;;;;;;;;5010496;28;20096;-66
2022/03/26 02:53:46;;;;;;;55.45;22.77;;;;;;;;;;5022153;28;20104;-67
2022/03/26 02:56:11;;;;;;;56.35;23.25;;;;;;;;;;5016783;28;20022;-66
2022/03/26 02:58:36;;;;;;;57.97;22.98;;;;;;;;;;5021708;28;20112;-68
2022/03/26 03:01:01;;;;;;;53.30;22.85;;;;;;;;;;5027310;28;20501;-67
2022/03/26 03:03:27;;;;;;;61.88;23.70;;;;;;;;;;5020796;28;20482;-67
2022/03/26 03:05:52;;;;;;;58.67;24.00;;;;;;;;;;5015657;28;20018;-67
2022/03/26 03:08:17;;;;;;;55.72;23.42;;;;;;;;;;5005298;28;20025;-67
2022/03/26 03:10:43;;;;;;;55.60;21.90;;;;;;;;;;5012576;28;20471;-67
2022/03/26 03:13:09;;;;;;;59.70;23.98;;;;;;;;;;5012520;28;20068;-67
2022/03/26 03:15:35;;;;;;;61.50;23.08;;;;;;;;;;5013454;28;20010;-67
2022/03/26 03:18:00;;;;;;;53.38;22.33;;;;;;;;;;5022270;28;20172;-67
2022/03/26 03:20:25;;;;;;;55.33;22.63;;;;;;;;;;5023590;28;20433;-67
2022/03/26 03:22:50;;;;;;;51.92;22.55;;;;;;;;;;5022912;28;20280;-67
2022/03/26 03:25:16;;;;;;;69.28;22.45;;;;;;;;;;5026126;28;20024;-67
2022/03/26 03:27:42;;;;;;;54.85;23.58;;;;;;;;;;5015731;28;20033;-66
2022/03/26 03:30:08;;;;;;;55.85;23.05;;;;;;;;;;5020330;28;20045;-67
2022/03/26 03:32:33;;;;;;;62.30;22.48;;;;;;;;;;5017168;28;20104;-66
2022/03/26 03:34:58;;;;;;;56.15;22.40;;;;;;;;;;5005711;28;20522;-67
2022/03/26 03:37:24;;;;;;;52.53;22.95;;;;;;;;;;5024036;28;20025;-67
2022/03/26 03:39:49;;;;;;;54.28;22.92;;;;;;;;;;5014451;28;20116;-67
2022/03/26 03:42:14;;;;;;;54.78;22.13;;;;;;;;;;5024453;28;20247;-67
2022/03/26 03:44:39;;;;;;;57.42;22.85;;;;;;;;;;5022828;28;20534;-67
2022/03/26 03:47:05;;;;;;;54.72;24.30;;;;;;;;;;5013151;28;20033;-67
2022/03/26 03:49:33;;;;;;;47.58;21.60;;;;;;;;;;5023150;28;20036;-67
2022/03/26 03:51:59;;;;;;;59.92;22.30;;;;;;;;;;5011703;28;21351;-66
2022/03/26 03:54:24;;;;;;;63.97;23.30;;;;;;;;;;5023141;28;20028;-67
2022/03/26 03:56:50;;;;;;;55.70;22.85;;;;;;;;;;5015898;28;20105;-67
2022/03/26 03:59:15;;;;;;;59.92;21.85;;;;;;;;;;5014856;28;20088;-67
2022/03/26 04:01:40;;;;;;;51.20;21.38;;;;;;;;;;5015355;28;20120;-66
2022/03/26 04:04:06;;;;;;;53.92;23.42;;;;;;;;;;5013494;28;20030;-66
2022/03/26 04:06:31;;;;;;;51.10;22.52;;;;;;;;;;5016862;28;20018;-66
2022/03/26 04:08:56;;;;;;;51.97;21.77;;;;;;;;;;5008426;28;20018;-66
2022/03/26 04:11:21;;;;;;;57.10;23.02;;;;;;;;;;5009452;28;20859;-67
2022/03/26 04:13:47;;;;;;;55.92;22.67;;;;;;;;;;5018725;28;20040;-67
2022/03/26 04:16:12;;;;;;;55.13;21.52;;;;;;;;;;5013259;28;20029;-67
2022/03/26 04:18:38;;;;;;;53.58;22.60;;;;;;;;;;5005518;28;20549;-66
2022/03/26 04:21:03;;;;;;;56.10;21.30;;;;;;;;;;5011185;28;20022;-66
2022/03/26 04:23:28;;;;;;;61.30;23.77;;;;;;;;;;5018973;28;20022;-66
2022/03/26 04:25:53;;;;;;;66.68;23.02;;;;;;;;;;5006794;28;20020;-66
2022/03/26 04:28:18;;;;;;;59.47;24.50;;;;;;;;;;5019688;28;20084;-66
2022/03/26 04:30:44;;;;;;;56.05;21.40;;;;;;;;;;5013373;28;20451;-66
2022/03/26 04:33:09;;;;;;;57.20;22.95;;;;;;;;;;5013209;28;20048;-66
2022/03/26 04:35:34;;;;;;;61.67;23.42;;;;;;;;;;5019138;28;20013;-66
2022/03/26 04:38:00;;;;;;;56.80;22.77;;;;;;;;;;5024814;28;20445;-66
2022/03/26 04:40:26;;;;;;;55.50;22.58;;;;;;;;;;5014977;28;20014;-67
2022/03/26 04:42:51;;;;;;;55.25;23.17;;;;;;;;;;5008518;28;20048;-66
2022/03/26 04:45:16;;;;;;;59.03;24.73;;;;;;;;;;5013080;28;20026;-66
2022/03/26 04:47:42;;;;;;;57.33;22.20;;;;;;;;;;5010751;28;20449;-66
2022/03/26 04:50:07;;;;;;;55.85;22.98;;;;;;;;;;5016360;28;20275;-66
2022/03/26 04:52:33;;;;;;;60.17;21.92;;;;;;;;;;5002041;28;20414;-67
2022/03/26 04:54:58;;;;;;;57.45;22.80;;;;;;;;;;5001538;28;20102;-66
2022/03/26 04:57:23;;;;;;;62.10;23.42;;;;;;;;;;5012080;28;20479;-67
2022/03/26 04:59:49;;;;;;;63.33;23.65;;;;;;;;;;5018748;28;20036;-67
2022/03/26 05:02:14;;;;;;;57.15;22.30;;;;;;;;;;4986772;28;20030;-67
2022/03/26 05:04:39;;;;;;;59.90;23.08;;;;;;;;;;5016406;28;20089;-67
2022/03/26 05:07:45;;;;;;;51.35;22.55;;;;;;;;;;4998700;28;20029;-67
2022/03/26 05:09:50;;;;;;;56.03;22.55;;;;;;;;;;5015091;28;20057;-67
2022/03/26 05:12:15;;;;;;;63.05;23.08;;;;;;;;;;5018560;28;20064;-66
2022/03/26 05:14:40;;;;;;;60.90;24.27;;;;;;;;;;5013426;28;20034;-67
2022/03/26 05:17:05;;;;;;;59.95;23.33;;;;;;;;;;5023632;28;20209;-67
2022/03/26 05:19:31;;;;;;;64.20;24.10;;;;;;;;;;5016561;28;20025;-66
2022/03/26 05:21:56;;;;;;;59.67;23.08;;;;;;;;;;5009952;28;20018;-67
2022/03/26 05:24:21;;;;;;;58.03;23.42;;;;;;;;;;5017170;28;20123;-67
2022/03/26 05:26:47;;;;;;;58.03;22.48;;;;;;;;;;5010010;28;20049;-67
2022/03/26 05:29:12;;;;;;;62.55;24.60;;;;;;;;;;5021759;28;20024;-66
2022/03/26 05:31:37;;;;;;;59.85;23.52;;;;;;;;;;5014574;28;20024;-67
2022/03/26 05:34:02;;;;;;;60.70;22.23;;;;;;;;;;5006716;28;20030;-66
2022/03/26 05:36:27;;;;;;;57.42;23.73;;;;;;;;;;5018974;28;20031;-67
2022/03/26 05:38:53;;;;;;;63.92;23.70;;;;;;;;;;5012642;28;20097;-67
2022/03/26 05:41:18;;;;;;;52.47;22.05;;;;;;;;;;5012739;28;20037;-67
2022/03/26 05:43:44;;;;;;;58.13;22.50;;;;;;;;;;4998592;28;20018;-66
2022/03/26 05:46:10;;;;;;;57.13;22.75;;;;;;;;;;5012573;28;20018;-67
2022/03/26 05:48:36;;;;;;;52.65;21.55;;;;;;;;;;5006876;28;20373;-67
2022/03/26 05:51:01;;;;;;;57.47;23.15;;;;;;;;;;5013215;28;20021;-67
2022/03/26 05:53:26;;;;;;;54.50;24.23;;;;;;;;;;5008749;28;20037;-67
2022/03/26 05:55:52;;;;;;;57.13;22.63;;;;;;;;;;5019446;28;20025;-67
2022/03/26 05:58:18;;;;;;;56.90;23.08;;;;;;;;;;5016423;28;20029;-67
2022/03/26 06:00:43;;;;;;;56.92;22.40;;;;;;;;;;5017983;28;20367;-67
2022/03/26 06:03:09;;;;;;;61.90;22.98;;;;;;;;;;5022656;28;20092;-68
2022/03/26 06:05:34;;;;;;;63.67;22.52;;;;;;;;;;5013500;28;20109;-67
2022/03/26 06:07:59;;;;;;;56.65;23.42;;;;;;;;;;5007802;28;20037;-67
2022/03/26 06:10:26;;;;;;;53.70;22.83;;;;;;;;;;5007978;28;20030;-68
2022/03/26 06:12:51;;;;;;;53.75;21.30;;;;;;;;;;5002698;28;20022;-67
2022/03/26 06:15:16;;;;;;;59.90;23.63;;;;;;;;;;5021838;28;20026;-68
2022/03/26 06:17:41;;;;;;;62.38;23.25;;;;;;;;;;5008850;28;20408;-67
2022/03/26 06:20:07;;;;;;;66.90;26.17;;;;;;;;;;5009457;28;20030;-68
2022/03/26 06:22:32;;;;;;;56.22;22.58;;;;;;;;;;4984612;28;20021;-68
2022/03/26 06:24:57;;;;;;;66.72;24.17;;;;;;;;;;5007244;28;20022;-68
2022/03/26 06:27:22;;;;;;;61.85;22.00;;;;;;;;;;5008090;28;20105;-68
2022/03/26 06:29:48;;;;;;;69.93;26.83;;;;;;;;;;5006592;28;20459;-68
2022/03/26 06:32:13;;;;;;;64.07;24.35;;;;;;;;;;5006853;28;20041;-68
2022/03/26 06:34:38;;;;;;;65.35;24.48;;;;;;;;;;5015745;28;20049;-67
2022/03/26 06:37:03;;;;;;;56.35;23.58;;;;;;;;;;5009688;28;20076;-68
2022/03/26 06:39:29;;;;;;;58.17;22.92;;;;;;;;;;5009236;28;20025;-68
2022/03/26 06:41:54;;;;;;;66.28;24.15;;;;;;;;;;5024663;28;20440;-67
2022/03/26 06:44:19;;;;;;;51.55;22.50;;;;;;;;;;5014112;28;20026;-68
2022/03/26 06:46:45;;;;;;;55.35;23.75;;;;;;;;;;5015923;28;20021;-68
2022/03/26 06:49:10;;;;;;;53.97;23.63;;;;;;;;;;5018320;28;20091;-68
2022/03/26 06:51:38;;;;;;;55.40;22.98;;;;;;;;;;5021479;28;20355;-68
2022/03/26 06:54:03;;;;;;;58.92;25.27;;;;;;;;;;5004872;28;20072;-68
2022/03/26 06:56:28;;;;;;;53.72;24.83;;;;;;;;;;5011308;28;20036;-67
2022/03/26 06:58:54;;;;;;;57.13;24.73;;;;;;;;;;5015546;28;20025;-68
2022/03/26 07:01:19;;;;;;;47.28;23.00;;;;;;;;;;5016163;28;20034;-68
2022/03/26 07:03:44;;;;;;;63.42;26.10;;;;;;;;;;5020725;28;20024;-67
2022/03/26 07:06:10;;;;;;;50.25;26.05;;;;;;;;;;5011400;28;20383;-68
2022/03/26 07:08:35;;;;;;;59.80;25.88;;;;;;;;;;5012307;28;20483;-67
2022/03/26 07:11:02;;;;;;;53.47;24.48;;;;;;;;;;5021396;28;20105;-68
2022/03/26 07:13:27;;;;;;;61.10;27.88;;;;;;;;;;5011461;28;20414;-68
2022/03/26 07:15:52;;;;;;;58.03;27.35;;;;;;;;;;5008914;28;20040;-68
2022/03/26 07:18:18;;;;;;;46.42;24.67;;;;;;;;;;5010568;28;20029;-68
2022/03/26 07:20:43;;;;;;;53.80;25.83;;;;;;;;;;5010388;28;20033;-68
2022/03/26 07:23:08;;;;;;;56.92;27.08;;;;;;;;;;5010930;28;20108;-68
2022/03/26 07:25:33;;;;;;;51.30;25.27;;;;;;;;;;5003828;28;20128;-67
2022/03/26 07:27:59;;;;;;;43.35;24.80;;;;;;;;;;5011285;28;20116;-68
2022/03/26 07:30:24;;;;;;;53.85;25.65;;;;;;;;;;5003518;28;20513;-67
2022/03/26 07:32:49;;;;;;;54.95;26.73;;;;;;;;;;5010126;28;20494;-68
2022/03/26 07:35:14;;;;;;;44.40;24.10;;;;;;;;;;5014747;28;20044;-68
2022/03/26 07:37:40;;;;;;;52.87;25.97;;;;;;;;;;5019033;28;20030;-68
2022/03/26 07:40:05;;;;;;;50.92;24.60;;;;;;;;;;5014905;28;20303;-69
2022/03/26 07:42:31;;;;;;;48.03;24.20;;;;;;;;;;5025587;28;20087;-68
2022/03/26 07:44:56;;;;;;;41.75;23.80;;;;;;;;;;5016391;28;20021;-68
2022/03/26 07:47:22;;;;;;;49.85;22.85;;;;;;;;;;5010305;28;20014;-69
2022/03/26 07:49:47;;;;;;;53.22;25.58;;;;;;;;;;5009878;28;20476;-69
2022/03/26 07:52:12;;;;;;;47.72;24.48;;;;;;;;;;5007731;28;20140;-68
2022/03/26 07:54:38;;;;;;;46.13;25.57;;;;;;;;;;5000035;28;20113;-69
2022/03/26 07:57:03;;;;;;;50.28;28.35;;;;;;;;;;5004257;28;20268;-68
2022/03/26 07:59:28;;;;;;;47.88;27.02;;;;;;;;;;5009880;28;20076;-69
2022/03/26 08:01:54;;;;;;;56.97;29.90;;;;;;;;;;5005599;28;20022;-69
2022/03/26 08:04:19;;;;;;;56.72;31.55;;;;;;;;;;5013199;28;20351;-70
2022/03/26 08:06:44;;;;;;;52.07;31.47;;;;;;;;;;5017802;28;20072;-69
2022/03/26 08:09:09;;;;;;;54.67;29.83;;;;;;;;;;5012644;28;20531;-69
2022/03/26 08:11:35;;;;;;;53.07;30.20;;;;;;;;;;5015513;28;20686;-69
2022/03/26 08:14:00;;;;;;;51.20;30.00;;;;;;;;;;5012029;28;20025;-69
2022/03/26 08:16:25;;;;;;;54.23;27.57;;;;;;;;;;5015204;28;20277;-69
2022/03/26 08:18:50;;;;;;;48.13;25.90;;;;;;;;;;5013166;28;20033;-69
2022/03/26 08:21:17;;;;;;;48.33;25.83;;;;;;;;;;5014864;28;20053;-69
2022/03/26 08:23:42;;;;;;;45.08;26.40;;;;;;;;;;5012336;28;20356;-68
2022/03/26 08:26:19;;;;;;;49.23;27.50;;;;;;;;;;5012392;28;20151;-68
2022/03/26 08:28:44;;;;;;;50.15;25.67;;;;;;;;;;5012264;28;20705;-68
2022/03/26 08:31:10;;;;;;;48.13;26.02;;;;;;;;;;5010383;28;20057;-69
2022/03/26 08:33:36;;;;;;;46.28;26.92;;;;;;;;;;5005251;28;20026;-69
2022/03/26 08:36:02;;;;;;;47.40;28.40;;;;;;;;;;5006282;28;20045;-69
2022/03/26 08:38:27;;;;;;;53.30;29.52;;;;;;;;;;5006163;28;20030;-69
2022/03/26 08:40:53;;;;;;;59.75;29.00;;;;;;;;;;5012208;28;20076;-69
2022/03/26 08:43:18;;;;;;;58.17;30.17;;;;;;;;;;5010662;28;20467;-69
2022/03/26 08:45:43;;;;;;;55.03;30.90;;;;;;;;;;5007229;28;20022;-69
2022/03/26 08:48:08;;;;;;;56.97;29.70;;;;;;;;;;4996274;28;20269;-68
2022/03/26 08:50:34;;;;;;;61.00;31.45;;;;;;;;;;4988567;28;20419;-69
2022/03/26 08:52:59;;;;;;;49.75;29.60;;;;;;;;;;4973447;28;20087;-69
2022/03/26 08:55:25;;;;;;;56.28;30.08;;;;;;;;;;4990583;28;20065;-69
2022/03/26 08:57:50;;;;;;;53.75;27.95;;;;;;;;;;5000974;28;20051;-70
2022/03/26 09:00:17;;;;;;;52.83;27.40;;;;;;;;;;5006083;28;20399;-70
2022/03/26 09:02:42;;;;;;;60.92;29.52;;;;;;;;;;5009667;28;20287;-71
2022/03/26 09:05:08;;;;;;;53.17;28.45;;;;;;;;;;5022890;28;20029;-69
2022/03/26 09:07:33;;;;;;;45.97;28.13;;;;;;;;;;5008356;28;20529;-69
2022/03/26 09:09:58;;;;;;;56.22;29.52;;;;;;;;;;5006858;28;20026;-70
2022/03/26 09:12:24;;;;;;;49.53;28.63;;;;;;;;;;5012067;28;20030;-68
2022/03/26 09:14:49;;;;;;;54.65;30.23;;;;;;;;;;5013443;28;20033;-69
2022/03/26 09:17:14;;;;;;;70.93;30.90;;;;;;;;;;5010531;28;20108;-69
2022/03/26 09:19:39;;;;;;;57.78;29.05;;;;;;;;;;5009960;28;20346;-69
2022/03/26 09:22:05;;;;;;;56.57;28.73;;;;;;;;;;5010028;28;20030;-69
2022/03/26 09:24:30;;;;;;;59.22;31.60;;;;;;;;;;5009457;28;20344;-70
2022/03/26 09:26:55;;;;;;;65.72;29.88;;;;;;;;;;5007017;28;20460;-68
2022/03/26 09:29:20;;;;;;;65.40;31.33;;;;;;;;;;5011430;28;20164;-68
2022/03/26 09:31:46;;;;;;;58.08;30.08;;;;;;;;;;5012761;28;20287;-68
2022/03/26 09:34:11;;;;;;;54.58;29.17;;;;;;;;;;5017282;28;20017;-69
2022/03/26 09:36:36;;;;;;;54.38;28.70;;;;;;;;;;5010561;28;20553;-69
2022/03/26 09:39:02;;;;;;;58.13;29.10;;;;;;;;;;5020863;28;20418;-70
2022/03/26 09:41:27;;;;;;;56.80;27.30;;;;;;;;;;5008095;28;20725;-70
2022/03/26 09:43:54;;;;;;;60.30;28.10;;;;;;;;;;5013153;28;20018;-68
2022/03/26 09:46:19;;;;;;;62.10;30.15;;;;;;;;;;5008491;28;20097;-68
2022/03/26 09:48:44;;;;;;;68.68;30.17;;;;;;;;;;5016304;28;20655;-68
2022/03/26 09:51:13;;;;;;;64.75;29.75;;;;;;;;;;5020861;28;20072;-68
2022/03/26 09:53:38;;;;;;;59.80;29.55;;;;;;;;;;5011994;28;20096;-68
2022/03/26 09:56:04;;;;;;;72.38;28.55;;;;;;;;;;5019747;28;20014;-70
2022/03/26 09:58:29;;;;;;;58.67;27.50;;;;;;;;;;5019400;28;20022;-68
2022/03/26 10:00:55;;;;;;;62.67;30.27;;;;;;;;;;5014591;28;20441;-70
2022/03/26 10:03:20;;;;;;;64.47;29.45;;;;;;;;;;5015951;28;20045;-70
2022/03/26 10:05:46;;;;;;;66.00;29.00;;;;;;;;;;5023221;28;20041;-70
2022/03/26 10:08:16;;;;;;;69.45;27.42;;;;;;;;;;5015670;28;20424;-70
2022/03/26 10:10:45;;;;;;;65.47;30.95;;;;;;;;;;5010920;28;20023;-70
2022/03/26 10:13:10;;;;;;;58.55;29.17;;;;;;;;;;5011447;28;20029;-70
2022/03/26 10:15:36;;;;;;;65.05;31.15;;;;;;;;;;5015933;28;20029;-69
2022/03/26 10:18:10;;;;;;;54.30;26.17;;;;;;;;;;5018625;28;20037;-69
2022/03/26 10:20:36;;;;;;;67.80;30.65;;;;;;;;;;5048029;22;20060;-88
2022/03/26 10:23:01;;;;;;;58.13;27.73;;;;;;;;;;5019779;28;20112;-88
2022/03/26 10:25:35;;;;;;;71.03;29.65;;;;;;;;;;5028637;28;20104;-88
2022/03/26 10:28:04;;;;;;;57.83;27.08;;;;;;;;;;5037680;28;20065;-89
2022/03/26 10:33:53;;;;;;;;;;;;;;;;;;;;;
2022/03/26 10:39:52;;;;;;;;;;;;;;;;;;;;;
2022/03/26 10:52:00;;;;;;;53.58;26.42;;;;;;;;;;5036908;28;20018;-90
2022/03/26 10:57:55;;;;;;;55.65;26.55;;;;;;;;;;4925561;29;20027;-89
2022/03/26 11:16:25;;;;;;;59.47;27.50;;;;;;;;;;4998005;28;20026;-90
2022/03/26 11:25:32;;;;;;;;;;;;;;;;;;5045695;28;20100;-90
2022/03/26 11:28:28;;;;;;;64.53;30.45;;;;;;;;;;5034862;28;19937;-90
2022/03/26 11:31:12;;;;;;;51.60;26.38;;;;;;;;;;5020899;28;20033;-89
2022/03/26 11:34:06;;;;;;;55.80;26.50;;;;;;;;;;5039798;28;20496;-89
2022/03/26 11:37:04;;;;;;;63.63;26.55;;;;;;;;;;5018146;28;20029;-90
2022/03/26 11:39:52;;;;;;;;;;;;;;;;;;;;;
2022/03/26 11:53:09;;;;;;;30.70;13.85;;;;;;;;;;5014367;28;20649;-66
2022/03/26 11:55:46;;;;;;;27.10;12.55;;;;;;;;;;5019405;28;20060;-66
2022/03/26 11:58:12;;;;;;;29.35;12.05;;;;;;;;;;5015898;28;20025;-66
2022/03/26 12:00:51;;;;;;;24.23;11.40;;;;;;;;;;5018631;28;20520;-67
2022/03/26 12:03:20;;;;;;;30.67;11.85;;;;;;;;;;5013671;28;20026;-67
2022/03/26 12:08:40;;;;;;;23.75;9.75;;;;;;;;;;5011602;28;20024;-68
2022/03/26 12:11:05;;;;;;;27.02;11.13;;;;;;;;;;5015655;28;20070;-67
2022/03/26 12:13:32;;;;;;;21.58;9.73;;;;;;;;;;5019761;28;20668;-67
2022/03/26 12:16:01;;;;;;;21.90;8.50;;;;;;;;;;5017236;28;20374;-66
2022/03/26 12:18:36;;;;;;;26.67;9.77;;;;;;;;;;5012463;28;20031;-66
2022/03/26 12:21:20;;;;;;;23.60;8.68;;;;;;;;;;5016499;28;20020;-66
2022/03/26 12:23:46;;;;;;;22.15;10.57;;;;;;;;;;4996104;28;20026;-67
2022/03/26 12:26:12;;;;;;;29.52;10.77;;;;;;;;;;5013222;28;20018;-67
2022/03/26 12:28:38;;;;;;;22.02;9.65;;;;;;;;;;5009795;28;20026;-66
2022/03/26 12:31:04;;;;;;;35.90;10.27;;;;;;;;;;5012855;28;20022;-66
2022/03/26 12:33:43;;;;;;;20.67;10.48;;;;;;;;;;5018395;28;20021;-66
2022/03/26 12:36:09;;;;;;;26.70;9.65;;;;;;;;;;5015523;28;20034;-67
2022/03/26 12:38:35;;;;;;;21.10;9.68;;;;;;;;;;5019889;28;20462;-66
2022/03/26 12:41:01;;;;;;;17.42;6.63;;;;;;;;;;5026526;28;20021;-67
2022/03/26 12:43:27;;;;;;;20.77;8.90;;;;;;;;;;5024383;28;20014;-66
2022/03/26 12:45:53;;;;;;;24.92;9.82;;;;;;;;;;5011112;28;20386;-66
2022/03/26 12:48:19;;;;;;;29.30;8.02;;;;;;;;;;5020152;28;20022;-66
2022/03/26 12:50:45;;;;;;;18.55;7.05;;;;;;;;;;5012099;28;20029;-66
2022/03/26 12:53:14;;;;;;;16.70;6.85;;;;;;;;;;5028333;28;20021;-66
2022/03/26 12:55:40;;;;;;;17.98;7.93;;;;;;;;;;5019046;28;20021;-66
2022/03/26 13:01:06;;;;;;;16.83;6.78;;;;;;;;;;5020245;28;20036;-66
2022/03/26 13:03:31;;;;;;;17.75;6.50;;;;;;;;;;5009848;28;20029;-66
2022/03/26 13:05:57;;;;;;;11.35;6.15;;;;;;;;;;5016701;28;20017;-66
2022/03/26 13:08:23;;;;;;;12.10;5.18;;;;;;;;;;5023050;28;20067;-66
2022/03/26 13:10:48;;;;;;;16.63;6.15;;;;;;;;;;5010118;28;20022;-66
2022/03/26 13:13:13;;;;;;;9.05;4.97;;;;;;;;;;5025555;28;20044;-66
2022/03/26 13:15:39;;;;;;;9.00;5.00;;;;;;;;;;5011109;28;20072;-66
2022/03/26 13:18:08;;;;;;;11.27;6.35;;;;;;;;;;5010735;28;20021;-66
2022/03/26 13:20:35;;;;;;;11.27;4.65;;;;;;;;;;5009302;28;20048;-66
2022/03/26 13:23:04;;;;;;;10.98;4.25;;;;;;;;;;5010557;28;20097;-66
2022/03/26 13:25:34;;;;;;;7.37;4.13;;;;;;;;;;5018105;28;20057;-66
2022/03/26 13:28:18;;;;;;;16.20;4.60;;;;;;;;;;5025490;28;20373;-66
2022/03/26 13:30:44;;;;;;;14.27;5.50;;;;;;;;;;5018010;28;20415;-66
2022/03/26 13:33:12;;;;;;;9.77;5.32;;;;;;;;;;5007633;28;20540;-66
2022/03/26 13:35:37;;;;;;;11.30;4.93;;;;;;;;;;5011859;28;20029;-66
2022/03/26 13:38:12;;;;;;;9.82;4.55;;;;;;;;;;5015396;28;20014;-66
2022/03/26 13:40:37;;;;;;;10.32;4.00;;;;;;;;;;5015544;28;20029;-66
2022/03/26 13:43:03;;;;;;;9.65;4.78;;;;;;;;;;5022903;28;20627;-66
2022/03/26 13:45:28;;;;;;;8.52;4.60;;;;;;;;;;5009227;28;20467;-66
2022/03/26 13:47:54;;;;;;;10.05;4.63;;;;;;;;;;5008748;28;20025;-66
2022/03/26 13:50:20;;;;;;;12.57;4.72;;;;;;;;;;5008637;28;20026;-66
2022/03/26 13:52:46;;;;;;;4.25;2.00;;;;;;;;;;5019480;28;20097;-66
2022/03/26 13:55:25;;;;;;;12.20;3.30;;;;;;;;;;5017315;28;20502;-66
2022/03/26 13:57:51;;;;;;;17.80;4.32;;;;;;;;;;5027570;28;20026;-66
2022/03/26 14:00:16;;;;;;;7.25;4.10;;;;;;;;;;5028503;28;20063;-66
2022/03/26 14:02:41;;;;;;;9.65;3.85;;;;;;;;;;5027384;28;20061;-66
2022/03/26 14:05:19;;;;;;;15.35;4.25;;;;;;;;;;5027311;28;20037;-66
2022/03/26 14:07:45;;;;;;;9.45;3.40;;;;;;;;;;5015157;28;20025;-66
2022/03/26 14:10:11;;;;;;;12.57;3.10;;;;;;;;;;5018558;28;20032;-66
2022/03/26 14:12:37;;;;;;;5.13;3.40;;;;;;;;;;5027059;28;20096;-66
2022/03/26 14:15:02;;;;;;;7.68;3.88;;;;;;;;;;5028122;28;20524;-66
2022/03/26 14:17:27;;;;;;;14.68;4.90;;;;;;;;;;5028770;28;20056;-67
2022/03/26 14:19:52;;;;;;;9.77;4.93;;;;;;;;;;5009169;28;20108;-67
2022/03/26 14:22:17;;;;;;;8.77;3.90;;;;;;;;;;5020296;28;20289;-67
2022/03/26 14:24:42;;;;;;;8.27;4.10;;;;;;;;;;4998039;28;20273;-67
2022/03/26 14:27:08;;;;;;;7.77;3.93;;;;;;;;;;5020702;28;20634;-67
2022/03/26 14:29:33;;;;;;;11.30;3.63;;;;;;;;;;5011768;28;20153;-67
2022/03/26 14:31:58;;;;;;;9.85;4.25;;;;;;;;;;4999200;28;20263;-67
2022/03/26 14:34:23;;;;;;;5.10;2.77;;;;;;;;;;5017751;28;20044;-67
2022/03/26 14:36:48;;;;;;;7.37;2.83;;;;;;;;;;5023734;28;20605;-67
2022/03/26 14:39:14;;;;;;;6.33;2.93;;;;;;;;;;5012213;28;20272;-67
2022/03/26 14:41:39;;;;;;;7.05;3.00;;;;;;;;;;5027544;28;20342;-67
2022/03/26 14:44:04;;;;;;;6.82;1.95;;;;;;;;;;5014998;28;20029;-67
2022/03/26 14:46:30;;;;;;;5.05;2.15;;;;;;;;;;5026129;28;20096;-67
2022/03/26 14:48:55;;;;;;;4.93;1.60;;;;;;;;;;5014898;28;20449;-67
2022/03/26 14:51:20;;;;;;;4.97;2.07;;;;;;;;;;5015193;28;20629;-67
2022/03/26 14:53:45;;;;;;;6.33;2.30;;;;;;;;;;5020588;28;20280;-67
2022/03/26 14:56:11;;;;;;;6.03;3.10;;;;;;;;;;5026330;28;20272;-67
2022/03/26 14:58:36;;;;;;;8.53;3.97;;;;;;;;;;5021563;28;20681;-67
2022/03/26 15:01:01;;;;;;;9.23;4.05;;;;;;;;;;5017560;28;20257;-67
2022/03/26 15:03:27;;;;;;;7.82;3.92;;;;;;;;;;5012597;28;20148;-67
2022/03/26 15:05:52;;;;;;;11.57;5.15;;;;;;;;;;5013063;28;20026;-67
2022/03/26 15:08:17;;;;;;;10.23;4.60;;;;;;;;;;5010437;28;20470;-67
2022/03/26 15:10:43;;;;;;;8.32;4.53;;;;;;;;;;5012431;28;20030;-67
2022/03/26 15:13:08;;;;;;;10.65;3.95;;;;;;;;;;5018544;28;20547;-67
2022/03/26 15:15:33;;;;;;;8.80;3.80;;;;;;;;;;5016146;28;20029;-67
2022/03/26 15:17:58;;;;;;;10.73;3.50;;;;;;;;;;5018369;28;20041;-67